sensor_id;sensor_type;location;lat;lon;timestamp;pressure;altitude;pressure_sealevel;temperature;humidity
78431;BME280;67727;50.236;22.452;2023-07-28T00:00:44;99127.66;;;12.64;74.89
78431;BME280;67727;50.236;22.452;2023-07-28T00:03:30;99125.70;;;12.63;74.86
78431;BME280;67727;50.236;22.452;2023-07-28T00:05:57;99121.32;;;12.62;74.88
78431;BME280;67727;50.236;22.452;2023-07-28T00:08:24;99121.11;;;12.62;74.92
78431;BME280;67727;50.236;22.452;2023-07-28T00:10:50;99118.34;;;12.62;75.03
78431;BME280;67727;50.236;22.452;2023-07-28T00:13:17;99121.06;;;12.59;74.95
78431;BME280;67727;50.236;22.452;2023-07-28T00:15:44;99117.80;;;12.55;75.19
78431;BME280;67727;50.236;22.452;2023-07-28T00:18:11;99113.04;;;12.54;75.18
78431;BME280;67727;50.236;22.452;2023-07-28T00:20:37;99113.50;;;12.54;75.37
78431;BME280;67727;50.236;22.452;2023-07-28T00:23:04;99115.10;;;12.56;75.20
78431;BME280;67727;50.236;22.452;2023-07-28T00:25:31;99113.88;;;12.56;75.38
78431;BME280;67727;50.236;22.452;2023-07-28T00:27:58;99110.48;;;12.56;75.24
78431;BME280;67727;50.236;22.452;2023-07-28T00:30:25;99106.22;;;12.57;75.06
78431;BME280;67727;50.236;22.452;2023-07-28T00:32:53;99103.30;;;12.59;75.09
78431;BME280;67727;50.236;22.452;2023-07-28T00:35:20;99097.95;;;12.59;75.26
78431;BME280;67727;50.236;22.452;2023-07-28T00:37:46;99095.42;;;12.58;75.37
78431;BME280;67727;50.236;22.452;2023-07-28T00:40:13;99098.98;;;12.58;75.24
78431;BME280;67727;50.236;22.452;2023-07-28T00:42:40;99096.64;;;12.60;75.27
78431;BME280;67727;50.236;22.452;2023-07-28T00:45:08;99099.02;;;12.62;75.33
78431;BME280;67727;50.236;22.452;2023-07-28T00:47:35;99097.14;;;12.64;75.38
78431;BME280;67727;50.236;22.452;2023-07-28T00:50:02;99096.23;;;12.65;75.30
78431;BME280;67727;50.236;22.452;2023-07-28T00:52:30;99096.85;;;12.65;75.43
78431;BME280;67727;50.236;22.452;2023-07-28T00:54:56;99087.37;;;12.62;75.40
78431;BME280;67727;50.236;22.452;2023-07-28T00:57:23;99085.15;;;12.60;75.40
78431;BME280;67727;50.236;22.452;2023-07-28T00:59:50;99083.52;;;12.57;75.28
78431;BME280;67727;50.236;22.452;2023-07-28T01:02:18;99082.09;;;12.56;75.37
78431;BME280;67727;50.236;22.452;2023-07-28T01:04:45;99085.77;;;12.53;75.63
78431;BME280;67727;50.236;22.452;2023-07-28T01:09:47;99091.66;;;12.49;75.57
78431;BME280;67727;50.236;22.452;2023-07-28T01:12:16;99085.35;;;12.47;75.77
78431;BME280;67727;50.236;22.452;2023-07-28T01:14:44;99076.96;;;12.45;75.57
78431;BME280;67727;50.236;22.452;2023-07-28T01:17:11;99074.19;;;12.42;75.94
78431;BME280;67727;50.236;22.452;2023-07-28T01:19:38;99073.08;;;12.39;76.06
78431;BME280;67727;50.236;22.452;2023-07-28T01:25:06;99070.38;;;12.34;76.06
78431;BME280;67727;50.236;22.452;2023-07-28T01:27:39;99067.05;;;12.33;76.23
78431;BME280;67727;50.236;22.452;2023-07-28T01:30:09;99067.35;;;12.33;76.34
78431;BME280;67727;50.236;22.452;2023-07-28T01:32:36;99069.09;;;12.34;76.21
78431;BME280;67727;50.236;22.452;2023-07-28T01:35:03;99069.39;;;12.33;76.11
78431;BME280;67727;50.236;22.452;2023-07-28T01:37:30;99063.41;;;12.31;75.95
78431;BME280;67727;50.236;22.452;2023-07-28T01:39:56;99067.27;;;12.29;76.08
78431;BME280;67727;50.236;22.452;2023-07-28T01:42:24;99062.23;;;12.24;75.96
78431;BME280;67727;50.236;22.452;2023-07-28T01:44:50;99066.95;;;12.20;76.30
78431;BME280;67727;50.236;22.452;2023-07-28T01:47:17;99067.70;;;12.19;76.35
78431;BME280;67727;50.236;22.452;2023-07-28T01:49:44;99064.88;;;12.19;76.37
78431;BME280;67727;50.236;22.452;2023-07-28T01:52:11;99063.33;;;12.18;76.45
78431;BME280;67727;50.236;22.452;2023-07-28T01:54:37;99061.04;;;12.18;76.75
78431;BME280;67727;50.236;22.452;2023-07-28T01:57:04;99056.98;;;12.18;76.56
78431;BME280;67727;50.236;22.452;2023-07-28T01:59:31;99051.42;;;12.20;76.72
78431;BME280;67727;50.236;22.452;2023-07-28T02:01:58;99050.39;;;12.21;77.02
78431;BME280;67727;50.236;22.452;2023-07-28T02:04:25;99047.92;;;12.24;76.95
78431;BME280;67727;50.236;22.452;2023-07-28T02:06:51;99051.48;;;12.28;77.02
78431;BME280;67727;50.236;22.452;2023-07-28T02:09:18;99054.48;;;12.31;76.90
78431;BME280;67727;50.236;22.452;2023-07-28T02:11:45;99054.35;;;12.34;77.13
78431;BME280;67727;50.236;22.452;2023-07-28T02:14:12;99053.83;;;12.37;77.02
78431;BME280;67727;50.236;22.452;2023-07-28T02:16:39;99054.55;;;12.39;77.14
78431;BME280;67727;50.236;22.452;2023-07-28T02:19:05;99053.29;;;12.39;77.25
78431;BME280;67727;50.236;22.452;2023-07-28T02:21:33;99054.06;;;12.39;77.25
78431;BME280;67727;50.236;22.452;2023-07-28T02:24:00;99054.63;;;12.39;77.19
78431;BME280;67727;50.236;22.452;2023-07-28T02:26:26;99053.13;;;12.42;77.08
78431;BME280;67727;50.236;22.452;2023-07-28T02:28:53;99056.55;;;12.45;77.18
78431;BME280;67727;50.236;22.452;2023-07-28T02:31:20;99060.25;;;12.48;77.24
78431;BME280;67727;50.236;22.452;2023-07-28T02:33:47;99056.64;;;12.51;77.30
78431;BME280;67727;50.236;22.452;2023-07-28T02:36:14;99053.24;;;12.53;77.22
78431;BME280;67727;50.236;22.452;2023-07-28T02:38:41;99052.83;;;12.53;77.46
78431;BME280;67727;50.236;22.452;2023-07-28T02:41:08;99045.77;;;12.53;77.46
78431;BME280;67727;50.236;22.452;2023-07-28T02:43:34;99042.09;;;12.54;77.57
78431;BME280;67727;50.236;22.452;2023-07-28T02:46:01;99040.95;;;12.56;77.65
78431;BME280;67727;50.236;22.452;2023-07-28T02:48:28;99040.98;;;12.59;77.72
78431;BME280;67727;50.236;22.452;2023-07-28T02:50:55;99043.60;;;12.61;77.60
78431;BME280;67727;50.236;22.452;2023-07-28T02:53:22;99046.85;;;12.66;77.61
78431;BME280;67727;50.236;22.452;2023-07-28T02:55:49;99045.35;;;12.69;77.56
78431;BME280;67727;50.236;22.452;2023-07-28T02:58:15;99046.29;;;12.70;77.59
78431;BME280;67727;50.236;22.452;2023-07-28T03:00:43;99049.73;;;12.70;77.76
78431;BME280;67727;50.236;22.452;2023-07-28T03:03:11;99050.14;;;12.69;77.95
78431;BME280;67727;50.236;22.452;2023-07-28T03:05:39;99049.48;;;12.70;77.89
78431;BME280;67727;50.236;22.452;2023-07-28T03:08:06;99048.70;;;12.75;77.89
78431;BME280;67727;50.236;22.452;2023-07-28T03:10:33;99048.73;;;12.80;77.91
78431;BME280;67727;50.236;22.452;2023-07-28T03:13:00;99045.83;;;12.85;77.80
78431;BME280;67727;50.236;22.452;2023-07-28T03:15:27;99045.90;;;12.91;77.87
78431;BME280;67727;50.236;22.452;2023-07-28T03:17:53;99041.84;;;12.94;77.80
78431;BME280;67727;50.236;22.452;2023-07-28T03:20:21;99037.81;;;12.98;77.59
78431;BME280;67727;50.236;22.452;2023-07-28T03:22:48;99038.75;;;13.00;77.69
78431;BME280;67727;50.236;22.452;2023-07-28T03:25:15;99034.64;;;13.00;77.75
78431;BME280;67727;50.236;22.452;2023-07-28T03:27:41;99037.92;;;12.98;77.93
78431;BME280;67727;50.236;22.452;2023-07-28T03:30:08;99039.13;;;12.97;77.84
78431;BME280;67727;50.236;22.452;2023-07-28T03:32:37;99034.25;;;12.99;78.05
78431;BME280;67727;50.236;22.452;2023-07-28T03:35:04;99034.95;;;13.00;78.12
78431;BME280;67727;50.236;22.452;2023-07-28T03:37:32;99038.99;;;13.03;78.14
78431;BME280;67727;50.236;22.452;2023-07-28T03:39:59;99035.17;;;13.05;78.12
78431;BME280;67727;50.236;22.452;2023-07-28T03:42:26;99033.34;;;13.08;78.05
78431;BME280;67727;50.236;22.452;2023-07-28T03:44:53;99037.65;;;13.12;78.15
78431;BME280;67727;50.236;22.452;2023-07-28T03:47:20;99042.90;;;13.14;78.01
78431;BME280;67727;50.236;22.452;2023-07-28T03:49:47;99043.10;;;13.15;78.06
78431;BME280;67727;50.236;22.452;2023-07-28T03:52:14;99044.40;;;13.17;78.05
78431;BME280;67727;50.236;22.452;2023-07-28T03:54:41;99041.10;;;13.20;78.03
78431;BME280;67727;50.236;22.452;2023-07-28T03:57:09;99037.36;;;13.24;78.19
78431;BME280;67727;50.236;22.452;2023-07-28T03:59:36;99028.11;;;13.28;77.93
78431;BME280;67727;50.236;22.452;2023-07-28T04:02:03;99025.75;;;13.31;78.04
78431;BME280;67727;50.236;22.452;2023-07-28T04:04:30;99023.70;;;13.33;78.21
78431;BME280;67727;50.236;22.452;2023-07-28T04:06:57;99025.02;;;13.36;78.11
78431;BME280;67727;50.236;22.452;2023-07-28T04:09:23;99022.45;;;13.38;78.21
78431;BME280;67727;50.236;22.452;2023-07-28T04:11:50;99019.36;;;13.39;78.25
78431;BME280;67727;50.236;22.452;2023-07-28T04:14:17;99023.38;;;13.42;78.28
78431;BME280;67727;50.236;22.452;2023-07-28T04:16:44;99020.48;;;13.48;78.34
78431;BME280;67727;50.236;22.452;2023-07-28T04:19:11;99020.09;;;13.55;78.48
78431;BME280;67727;50.236;22.452;2023-07-28T04:21:37;99023.41;;;13.58;78.40
78431;BME280;67727;50.236;22.452;2023-07-28T04:24:07;99027.32;;;13.65;78.43
78431;BME280;67727;50.236;22.452;2023-07-28T04:26:34;99026.26;;;13.74;78.74
78431;BME280;67727;50.236;22.452;2023-07-28T04:29:01;99020.02;;;13.81;78.50
78431;BME280;67727;50.236;22.452;2023-07-28T04:31:28;99016.79;;;13.87;78.31
78431;BME280;67727;50.236;22.452;2023-07-28T04:33:55;99020.62;;;13.92;78.45
78431;BME280;67727;50.236;22.452;2023-07-28T04:36:22;99024.64;;;13.98;78.45
78431;BME280;67727;50.236;22.452;2023-07-28T04:38:49;99016.10;;;14.05;78.40
78431;BME280;67727;50.236;22.452;2023-07-28T04:41:16;99014.71;;;14.10;78.39
78431;BME280;67727;50.236;22.452;2023-07-28T04:43:43;99016.79;;;14.19;78.39
78431;BME280;67727;50.236;22.452;2023-07-28T04:46:09;99017.25;;;14.28;78.56
78431;BME280;67727;50.236;22.452;2023-07-28T04:48:36;99015.08;;;14.38;77.92
78431;BME280;67727;50.236;22.452;2023-07-28T04:51:03;99007.70;;;14.51;77.75
78431;BME280;67727;50.236;22.452;2023-07-28T04:53:30;99005.54;;;14.63;77.59
78431;BME280;67727;50.236;22.452;2023-07-28T04:55:57;99007.23;;;14.75;77.63
78431;BME280;67727;50.236;22.452;2023-07-28T04:58:23;99008.87;;;14.86;77.55
78431;BME280;67727;50.236;22.452;2023-07-28T05:00:50;99005.19;;;14.97;77.08
78431;BME280;67727;50.236;22.452;2023-07-28T05:03:17;99004.77;;;15.07;76.45
78431;BME280;67727;50.236;22.452;2023-07-28T05:05:44;99007.99;;;15.15;76.39
78431;BME280;67727;50.236;22.452;2023-07-28T05:08:11;99001.02;;;15.25;75.62
78431;BME280;67727;50.236;22.452;2023-07-28T05:10:38;98995.36;;;15.34;75.15
78431;BME280;67727;50.236;22.452;2023-07-28T05:13:05;98998.70;;;15.46;74.95
78431;BME280;67727;50.236;22.452;2023-07-28T05:15:32;98997.11;;;15.59;74.43
78431;BME280;67727;50.236;22.452;2023-07-28T05:17:59;99000.94;;;15.69;74.23
78431;BME280;67727;50.236;22.452;2023-07-28T05:20:25;99002.98;;;15.78;73.69
78431;BME280;67727;50.236;22.452;2023-07-28T05:22:53;99000.29;;;15.83;73.74
78431;BME280;67727;50.236;22.452;2023-07-28T05:25:19;99003.02;;;15.90;73.99
78431;BME280;67727;50.236;22.452;2023-07-28T05:27:46;98994.05;;;15.96;74.13
78431;BME280;67727;50.236;22.452;2023-07-28T05:30:13;98985.00;;;16.01;73.92
78431;BME280;67727;50.236;22.452;2023-07-28T05:32:40;98985.13;;;16.07;73.52
78431;BME280;67727;50.236;22.452;2023-07-28T05:35:07;98984.52;;;16.15;73.56
78431;BME280;67727;50.236;22.452;2023-07-28T05:37:33;98981.99;;;16.21;73.33
78431;BME280;67727;50.236;22.452;2023-07-28T05:40:00;98980.33;;;16.27;73.47
78431;BME280;67727;50.236;22.452;2023-07-28T05:42:27;98983.96;;;16.36;73.87
78431;BME280;67727;50.236;22.452;2023-07-28T05:44:54;98979.80;;;16.48;73.88
78431;BME280;67727;50.236;22.452;2023-07-28T05:47:21;98978.10;;;16.63;73.24
78431;BME280;67727;50.236;22.452;2023-07-28T05:49:48;98977.52;;;16.78;72.71
78431;BME280;67727;50.236;22.452;2023-07-28T05:52:15;98982.10;;;16.97;72.29
78431;BME280;67727;50.236;22.452;2023-07-28T05:54:42;98983.38;;;17.12;71.16
78431;BME280;67727;50.236;22.452;2023-07-28T05:57:09;98977.55;;;17.26;71.62
78431;BME280;67727;50.236;22.452;2023-07-28T05:59:35;98975.17;;;17.39;71.51
78431;BME280;67727;50.236;22.452;2023-07-28T06:02:03;98969.66;;;17.50;71.96
78431;BME280;67727;50.236;22.452;2023-07-28T06:04:30;98973.91;;;17.65;71.54
78431;BME280;67727;50.236;22.452;2023-07-28T06:06:57;98969.28;;;17.81;69.81
78431;BME280;67727;50.236;22.452;2023-07-28T06:09:23;98967.11;;;17.98;69.37
78431;BME280;67727;50.236;22.452;2023-07-28T06:11:50;98963.37;;;18.15;67.74
78431;BME280;67727;50.236;22.452;2023-07-28T06:14:17;98961.92;;;18.29;66.41
78431;BME280;67727;50.236;22.452;2023-07-28T06:16:44;98961.98;;;18.46;67.41
78431;BME280;67727;50.236;22.452;2023-07-28T06:19:11;98953.73;;;18.65;65.84
78431;BME280;67727;50.236;22.452;2023-07-28T06:21:37;98956.52;;;18.87;65.88
78431;BME280;67727;50.236;22.452;2023-07-28T06:24:05;98953.03;;;19.09;65.58
78431;BME280;67727;50.236;22.452;2023-07-28T06:26:32;98948.66;;;19.30;65.12
78431;BME280;67727;50.236;22.452;2023-07-28T06:28:59;98942.91;;;19.50;64.46
78431;BME280;67727;50.236;22.452;2023-07-28T06:31:26;98945.45;;;19.64;63.44
78431;BME280;67727;50.236;22.452;2023-07-28T06:33:52;98947.88;;;19.74;62.92
78431;BME280;67727;50.236;22.452;2023-07-28T06:36:19;98947.69;;;19.84;61.71
78431;BME280;67727;50.236;22.452;2023-07-28T06:38:46;98939.77;;;19.88;60.07
78431;BME280;67727;50.236;22.452;2023-07-28T06:41:15;98934.45;;;19.89;61.45
78431;BME280;67727;50.236;22.452;2023-07-28T06:43:41;98930.98;;;19.94;60.44
78431;BME280;67727;50.236;22.452;2023-07-28T06:46:08;98927.00;;;19.99;60.21
78431;BME280;67727;50.236;22.452;2023-07-28T06:48:35;98934.29;;;20.09;60.61
78431;BME280;67727;50.236;22.452;2023-07-28T06:51:02;98933.58;;;20.22;61.16
78431;BME280;67727;50.236;22.452;2023-07-28T06:53:29;98933.80;;;20.39;60.21
78431;BME280;67727;50.236;22.452;2023-07-28T06:55:55;98933.93;;;20.53;60.03
78431;BME280;67727;50.236;22.452;2023-07-28T06:58:22;98931.37;;;20.67;59.14
78431;BME280;67727;50.236;22.452;2023-07-28T07:00:49;98933.42;;;20.79;58.60
78431;BME280;67727;50.236;22.452;2023-07-28T07:03:16;98933.85;;;20.88;58.17
78431;BME280;67727;50.236;22.452;2023-07-28T07:05:44;98935.81;;;20.95;58.10
78431;BME280;67727;50.236;22.452;2023-07-28T07:08:11;98940.61;;;20.97;57.34
78431;BME280;67727;50.236;22.452;2023-07-28T07:10:38;98942.50;;;20.97;57.16
78431;BME280;67727;50.236;22.452;2023-07-28T07:13:05;98940.35;;;20.96;56.29
78431;BME280;67727;50.236;22.452;2023-07-28T07:15:34;98938.21;;;20.91;55.65
78431;BME280;67727;50.236;22.452;2023-07-28T07:18:02;98939.01;;;20.85;55.73
78431;BME280;67727;50.236;22.452;2023-07-28T07:20:29;98935.42;;;20.80;56.18
78431;BME280;67727;50.236;22.452;2023-07-28T07:22:55;98938.20;;;20.78;57.02
78431;BME280;67727;50.236;22.452;2023-07-28T07:25:22;98936.48;;;20.75;55.31
78431;BME280;67727;50.236;22.452;2023-07-28T07:27:49;98937.52;;;20.68;55.96
78431;BME280;67727;50.236;22.452;2023-07-28T07:30:16;98942.16;;;20.61;55.90
78431;BME280;67727;50.236;22.452;2023-07-28T07:32:43;98941.42;;;20.54;55.95
78431;BME280;67727;50.236;22.452;2023-07-28T07:35:10;98941.30;;;20.46;56.03
78431;BME280;67727;50.236;22.452;2023-07-28T07:37:37;98943.27;;;20.38;56.22
78431;BME280;67727;50.236;22.452;2023-07-28T07:40:06;98946.11;;;20.29;56.26
78431;BME280;67727;50.236;22.452;2023-07-28T07:42:41;98945.85;;;20.22;56.53
78431;BME280;67727;50.236;22.452;2023-07-28T07:45:13;98946.98;;;20.15;56.78
78431;BME280;67727;50.236;22.452;2023-07-28T07:47:41;98949.54;;;20.12;57.79
78431;BME280;67727;50.236;22.452;2023-07-28T07:50:09;98948.63;;;20.13;57.65
78431;BME280;67727;50.236;22.452;2023-07-28T07:52:37;98950.91;;;20.14;57.83
78431;BME280;67727;50.236;22.452;2023-07-28T07:55:06;98951.79;;;20.16;58.10
78431;BME280;67727;50.236;22.452;2023-07-28T07:57:33;98950.50;;;20.19;57.50
78431;BME280;67727;50.236;22.452;2023-07-28T08:00:00;98949.63;;;20.24;59.02
78431;BME280;67727;50.236;22.452;2023-07-28T08:02:27;98949.84;;;20.29;58.15
78431;BME280;67727;50.236;22.452;2023-07-28T08:04:54;98948.44;;;20.37;58.20
78431;BME280;67727;50.236;22.452;2023-07-28T08:07:21;98947.82;;;20.47;58.58
78431;BME280;67727;50.236;22.452;2023-07-28T08:09:49;98949.84;;;20.58;57.78
78431;BME280;67727;50.236;22.452;2023-07-28T08:12:16;98948.23;;;20.67;57.16
78431;BME280;67727;50.236;22.452;2023-07-28T08:14:44;98944.98;;;20.74;56.95
78431;BME280;67727;50.236;22.452;2023-07-28T08:17:12;98942.10;;;20.79;56.86
78431;BME280;67727;50.236;22.452;2023-07-28T08:19:39;98937.87;;;20.84;56.38
78431;BME280;67727;50.236;22.452;2023-07-28T08:22:07;98940.40;;;20.95;56.68
78431;BME280;67727;50.236;22.452;2023-07-28T08:24:33;98939.48;;;21.10;56.20
78431;BME280;67727;50.236;22.452;2023-07-28T08:27:00;98937.39;;;21.25;56.61
78431;BME280;67727;50.236;22.452;2023-07-28T08:29:27;98936.34;;;21.42;55.68
78431;BME280;67727;50.236;22.452;2023-07-28T08:31:54;98939.92;;;21.59;56.22
78431;BME280;67727;50.236;22.452;2023-07-28T08:34:20;98945.02;;;21.75;55.60
78431;BME280;67727;50.236;22.452;2023-07-28T08:36:47;98937.11;;;21.90;54.76
78431;BME280;67727;50.236;22.452;2023-07-28T08:39:14;98939.36;;;22.09;54.50
78431;BME280;67727;50.236;22.452;2023-07-28T08:41:41;98941.56;;;22.25;53.58
78431;BME280;67727;50.236;22.452;2023-07-28T08:44:08;98941.12;;;22.40;53.54
78431;BME280;67727;50.236;22.452;2023-07-28T08:46:35;98944.92;;;22.61;53.09
78431;BME280;67727;50.236;22.452;2023-07-28T08:49:02;98944.16;;;22.87;53.28
78431;BME280;67727;50.236;22.452;2023-07-28T08:51:29;98943.48;;;23.14;52.74
78431;BME280;67727;50.236;22.452;2023-07-28T08:53:56;98947.23;;;23.33;51.33
78431;BME280;67727;50.236;22.452;2023-07-28T08:56:24;98933.90;;;23.46;50.24
78431;BME280;67727;50.236;22.452;2023-07-28T08:58:57;98939.15;;;23.55;50.73
78431;BME280;67727;50.236;22.452;2023-07-28T09:01:25;98941.34;;;23.60;49.86
78431;BME280;67727;50.236;22.452;2023-07-28T09:03:51;98939.79;;;23.57;49.57
78431;BME280;67727;50.236;22.452;2023-07-28T09:06:18;98944.16;;;23.56;50.29
78431;BME280;67727;50.236;22.452;2023-07-28T09:08:46;98937.95;;;23.55;49.58
78431;BME280;67727;50.236;22.452;2023-07-28T09:11:13;98939.79;;;23.55;50.51
78431;BME280;67727;50.236;22.452;2023-07-28T09:13:41;98943.63;;;23.58;50.88
78431;BME280;67727;50.236;22.452;2023-07-28T09:16:18;98942.26;;;23.59;51.06
78431;BME280;67727;50.236;22.452;2023-07-28T09:18:46;98938.33;;;23.58;50.60
78431;BME280;67727;50.236;22.452;2023-07-28T09:21:16;98937.31;;;23.54;50.40
78431;BME280;67727;50.236;22.452;2023-07-28T09:23:44;98944.81;;;23.41;49.19
78431;BME280;67727;50.236;22.452;2023-07-28T09:26:11;98944.30;;;23.23;50.37
78431;BME280;67727;50.236;22.452;2023-07-28T09:28:38;98950.16;;;23.07;50.08
78431;BME280;67727;50.236;22.452;2023-07-28T09:31:05;98953.79;;;22.86;50.04
78431;BME280;67727;50.236;22.452;2023-07-28T09:33:34;98954.95;;;22.69;51.35
78431;BME280;67727;50.236;22.452;2023-07-28T09:36:11;98956.69;;;22.60;52.01
78431;BME280;67727;50.236;22.452;2023-07-28T09:38:40;98960.59;;;22.54;52.45
78431;BME280;67727;50.236;22.452;2023-07-28T09:41:08;98958.82;;;22.48;52.30
78431;BME280;67727;50.236;22.452;2023-07-28T09:43:39;98960.79;;;22.39;52.62
78431;BME280;67727;50.236;22.452;2023-07-28T09:46:08;98959.77;;;22.29;52.76
78431;BME280;67727;50.236;22.452;2023-07-28T09:48:38;98964.30;;;22.20;52.95
78431;BME280;67727;50.236;22.452;2023-07-28T09:51:12;98960.42;;;22.12;52.81
78431;BME280;67727;50.236;22.452;2023-07-28T09:53:46;98955.36;;;22.05;53.41
78431;BME280;67727;50.236;22.452;2023-07-28T09:56:19;98958.64;;;21.98;53.78
78431;BME280;67727;50.236;22.452;2023-07-28T09:58:58;98964.05;;;21.93;54.57
78431;BME280;67727;50.236;22.452;2023-07-28T10:01:28;98962.74;;;21.89;55.07
78431;BME280;67727;50.236;22.452;2023-07-28T10:03:58;98970.24;;;21.86;55.74
78431;BME280;67727;50.236;22.452;2023-07-28T10:06:28;98971.27;;;21.80;56.04
78431;BME280;67727;50.236;22.452;2023-07-28T10:08:58;98976.42;;;21.68;56.93
78431;BME280;67727;50.236;22.452;2023-07-28T10:11:28;98979.69;;;21.56;58.15
78431;BME280;67727;50.236;22.452;2023-07-28T10:13:58;98983.38;;;21.35;58.68
78431;BME280;67727;50.236;22.452;2023-07-28T10:16:31;98991.43;;;21.18;59.62
78431;BME280;67727;50.236;22.452;2023-07-28T10:19:05;98992.52;;;20.98;60.40
78431;BME280;67727;50.236;22.452;2023-07-28T10:21:39;98999.30;;;20.78;61.33
78431;BME280;67727;50.236;22.452;2023-07-28T10:24:08;99003.88;;;20.53;62.54
78431;BME280;67727;50.236;22.452;2023-07-28T10:26:39;99006.42;;;20.30;63.45
78431;BME280;67727;50.236;22.452;2023-07-28T10:29:14;99007.34;;;20.12;64.32
78431;BME280;67727;50.236;22.452;2023-07-28T10:31:55;99010.50;;;19.99;65.26
78431;BME280;67727;50.236;22.452;2023-07-28T10:34:23;99012.10;;;19.86;66.15
78431;BME280;67727;50.236;22.452;2023-07-28T10:36:58;99015.10;;;19.75;66.88
78431;BME280;67727;50.236;22.452;2023-07-28T10:39:27;99012.98;;;19.69;67.53
78431;BME280;67727;50.236;22.452;2023-07-28T10:44:28;99017.36;;;19.54;68.44
78431;BME280;67727;50.236;22.452;2023-07-28T10:46:55;99014.21;;;19.43;68.68
78431;BME280;67727;50.236;22.452;2023-07-28T10:49:24;99011.70;;;19.30;68.84
78431;BME280;67727;50.236;22.452;2023-07-28T10:51:51;99009.45;;;19.17;69.65
78431;BME280;67727;50.236;22.452;2023-07-28T10:54:17;99006.29;;;19.05;70.38
78431;BME280;67727;50.236;22.452;2023-07-28T10:56:47;99007.80;;;18.98;70.78
78431;BME280;67727;50.236;22.452;2023-07-28T10:59:15;99005.08;;;18.95;71.19
78431;BME280;67727;50.236;22.452;2023-07-28T11:01:42;99007.31;;;18.97;71.19
78431;BME280;67727;50.236;22.452;2023-07-28T11:04:13;99007.29;;;19.00;71.36
78431;BME280;67727;50.236;22.452;2023-07-28T11:06:44;99002.11;;;18.98;71.14
78431;BME280;67727;50.236;22.452;2023-07-28T11:09:12;98999.60;;;18.95;71.29
78431;BME280;67727;50.236;22.452;2023-07-28T11:11:41;98998.20;;;18.90;71.57
78431;BME280;67727;50.236;22.452;2023-07-28T11:14:08;98994.42;;;18.89;71.99
78431;BME280;67727;50.236;22.452;2023-07-28T11:16:37;98994.17;;;18.91;72.01
78431;BME280;67727;50.236;22.452;2023-07-28T11:19:09;98990.16;;;18.93;71.62
78431;BME280;67727;50.236;22.452;2023-07-28T11:21:41;98985.29;;;18.97;71.75
78431;BME280;67727;50.236;22.452;2023-07-28T11:24:08;98983.09;;;19.02;71.91
78431;BME280;67727;50.236;22.452;2023-07-28T11:26:37;98982.77;;;19.07;71.75
78431;BME280;67727;50.236;22.452;2023-07-28T11:29:05;98978.46;;;19.07;71.19
78431;BME280;67727;50.236;22.452;2023-07-28T11:31:33;98976.85;;;19.07;71.59
78431;BME280;67727;50.236;22.452;2023-07-28T11:34:00;98979.23;;;19.11;71.61
78431;BME280;67727;50.236;22.452;2023-07-28T11:36:30;98977.81;;;19.18;71.27
78431;BME280;67727;50.236;22.452;2023-07-28T11:38:58;98980.98;;;19.26;71.53
78431;BME280;67727;50.236;22.452;2023-07-28T11:41:26;98978.21;;;19.38;71.94
78431;BME280;67727;50.236;22.452;2023-07-28T11:43:55;98978.04;;;19.51;71.37
78431;BME280;67727;50.236;22.452;2023-07-28T11:46:39;98974.34;;;19.59;71.32
78431;BME280;67727;50.236;22.452;2023-07-28T11:49:17;98971.53;;;19.64;71.32
78431;BME280;67727;50.236;22.452;2023-07-28T11:51:47;98968.83;;;19.68;71.77
78431;BME280;67727;50.236;22.452;2023-07-28T11:54:22;98968.93;;;19.79;72.18
78431;BME280;67727;50.236;22.452;2023-07-28T11:56:51;98965.81;;;19.97;71.89
78431;BME280;67727;50.236;22.452;2023-07-28T11:59:19;98963.23;;;20.14;71.57
78431;BME280;67727;50.236;22.452;2023-07-28T12:07:14;98968.05;;;20.49;70.68
78431;BME280;67727;50.236;22.452;2023-07-28T12:12:13;98968.48;;;20.40;69.83
78431;BME280;67727;50.236;22.452;2023-07-28T12:14:40;98964.38;;;20.31;69.99
78431;BME280;67727;50.236;22.452;2023-07-28T12:17:23;98966.57;;;20.21;70.13
78431;BME280;67727;50.236;22.452;2023-07-28T12:20:05;98963.05;;;20.13;70.11
78431;BME280;67727;50.236;22.452;2023-07-28T12:22:42;98962.85;;;20.07;69.89
78431;BME280;67727;50.236;22.452;2023-07-28T12:25:09;98966.69;;;20.03;70.17
78431;BME280;67727;50.236;22.452;2023-07-28T12:27:37;98965.09;;;20.00;69.73
78431;BME280;67727;50.236;22.452;2023-07-28T12:30:05;98965.17;;;19.96;69.85
78431;BME280;67727;50.236;22.452;2023-07-28T12:32:34;98968.14;;;19.95;69.79
78431;BME280;67727;50.236;22.452;2023-07-28T12:35:02;98972.01;;;19.95;69.75
78431;BME280;67727;50.236;22.452;2023-07-28T12:37:30;98969.54;;;19.93;69.22
78431;BME280;67727;50.236;22.452;2023-07-28T12:39:57;98970.45;;;19.91;69.21
78431;BME280;67727;50.236;22.452;2023-07-28T12:42:26;98965.39;;;19.91;69.40
78431;BME280;67727;50.236;22.452;2023-07-28T12:44:53;98961.58;;;19.90;68.87
78431;BME280;67727;50.236;22.452;2023-07-28T12:47:20;98962.59;;;19.89;69.06
78431;BME280;67727;50.236;22.452;2023-07-28T12:49:47;98960.34;;;19.91;69.47
78431;BME280;67727;50.236;22.452;2023-07-28T12:52:14;98961.35;;;19.97;69.85
78431;BME280;67727;50.236;22.452;2023-07-28T12:54:42;98961.61;;;20.08;69.91
78431;BME280;67727;50.236;22.452;2023-07-28T12:57:12;98958.90;;;20.25;69.96
78431;BME280;67727;50.236;22.452;2023-07-28T12:59:48;98963.11;;;20.46;69.59
78431;BME280;67727;50.236;22.452;2023-07-28T13:02:17;98961.33;;;20.69;68.02
78431;BME280;67727;50.236;22.452;2023-07-28T13:04:44;98960.86;;;20.81;67.21
78431;BME280;67727;50.236;22.452;2023-07-28T13:07:11;98958.63;;;20.88;66.68
78431;BME280;67727;50.236;22.452;2023-07-28T13:09:38;98953.66;;;20.94;66.50